Time;durP1;ratioP1;P1;durP2;ratioP2;P2;SDS_P1;SDS_P2;PMS_P1;PMS_P2;Temp;Humidity;BMP_temperature;BMP_pressure;BME280_temperature;BME280_humidity;BME280_pressure;Samples;Min_cycle;Max_cycle;Signal;HPM_P1;HPM_P2
2022/04/10 00:00:35;;;;;;;5.50;2.50;;;;;;;;;;5021067;28;20527;-68
2022/04/10 00:03:03;;;;;;;2.28;2.08;;;;;;;;;;5023352;28;20122;-68
2022/04/10 00:05:29;;;;;;;2.22;1.30;;;;;;;;;;5024435;28;20055;-69
2022/04/10 00:07:54;;;;;;;9.65;3.03;;;;;;;;;;5023902;28;20478;-68
2022/04/10 00:10:20;;;;;;;5.65;2.78;;;;;;;;;;5021059;28;20040;-70
2022/04/10 00:12:45;;;;;;;5.97;3.28;;;;;;;;;;5023279;28;20037;-68
2022/04/10 00:15:11;;;;;;;10.25;2.42;;;;;;;;;;5023234;28;20486;-68
2022/04/10 00:17:38;;;;;;;5.13;2.67;;;;;;;;;;5023715;28;20041;-69
2022/04/10 00:20:04;;;;;;;5.13;2.60;;;;;;;;;;5023759;28;20079;-68
2022/04/10 00:22:30;;;;;;;2.80;2.35;;;;;;;;;;5021696;28;20033;-71
2022/04/10 00:24:55;;;;;;;6.50;2.60;;;;;;;;;;5023919;28;20039;-69
2022/04/10 00:27:21;;;;;;;3.22;2.55;;;;;;;;;;5023381;28;20055;-68
2022/04/10 00:29:47;;;;;;;4.45;2.45;;;;;;;;;;5022130;28;20037;-69
2022/04/10 00:32:13;;;;;;;7.57;2.45;;;;;;;;;;5020069;28;20052;-68
2022/04/10 00:34:38;;;;;;;6.60;2.80;;;;;;;;;;5023297;28;20024;-70
2022/04/10 00:37:04;;;;;;;8.20;2.78;;;;;;;;;;5021835;28;20098;-69
2022/04/10 00:39:29;;;;;;;9.50;2.38;;;;;;;;;;5023429;28;20033;-69
2022/04/10 00:41:56;;;;;;;3.70;2.33;;;;;;;;;;5021226;28;20099;-68
2022/04/10 00:44:21;;;;;;;3.90;2.40;;;;;;;;;;5020834;28;21049;-69
2022/04/10 00:46:49;;;;;;;7.35;2.33;;;;;;;;;;5022818;28;20969;-68
2022/04/10 00:49:15;;;;;;;6.00;3.00;;;;;;;;;;5021920;28;20085;-69
2022/04/10 00:51:46;;;;;;;2.83;2.28;;;;;;;;;;5021768;28;20235;-68
2022/04/10 00:54:24;;;;;;;7.57;2.60;;;;;;;;;;5021824;28;20552;-68
2022/04/10 00:56:50;;;;;;;3.60;2.03;;;;;;;;;;5022833;28;20036;-68
2022/04/10 00:59:16;;;;;;;5.35;2.22;;;;;;;;;;5021605;28;20112;-68
2022/04/10 01:01:44;;;;;;;4.30;2.30;;;;;;;;;;5021283;28;20163;-68
2022/04/10 01:04:12;;;;;;;2.05;1.67;;;;;;;;;;5021577;28;20079;-68
2022/04/10 01:06:39;;;;;;;1.45;1.35;;;;;;;;;;5015538;28;20033;-68
2022/04/10 01:09:06;;;;;;;4.13;2.17;;;;;;;;;;5020759;28;20509;-67
2022/04/10 01:11:33;;;;;;;1.30;1.20;;;;;;;;;;5021510;28;20083;-68
2022/04/10 01:14:01;;;;;;;3.22;1.45;;;;;;;;;;5020866;28;20866;-69
2022/04/10 01:16:29;;;;;;;2.88;2.53;;;;;;;;;;5019764;28;20664;-68
2022/04/10 01:18:55;;;;;;;4.35;2.05;;;;;;;;;;5022077;28;20040;-68
2022/04/10 01:21:26;;;;;;;3.10;2.00;;;;;;;;;;5021293;28;20033;-68
2022/04/10 01:23:56;;;;;;;1.90;1.55;;;;;;;;;;5020856;28;20041;-67
2022/04/10 01:26:24;;;;;;;2.50;2.20;;;;;;;;;;5021376;28;20030;-68
2022/04/10 01:29:11;;;;;;;2.35;1.75;;;;;;;;;;5019046;28;20115;-67
2022/04/10 01:31:40;;;;;;;3.70;1.50;;;;;;;;;;5020667;28;20033;-67
2022/04/10 01:34:09;;;;;;;5.85;1.80;;;;;;;;;;5034742;28;20037;-68
2022/04/10 01:36:36;;;;;;;3.15;1.50;;;;;;;;;;5022769;28;20033;-69
2022/04/10 01:39:06;;;;;;;2.47;1.52;;;;;;;;;;5021939;28;20049;-71
2022/04/10 01:41:34;;;;;;;3.88;2.30;;;;;;;;;;5021306;28;20044;-69
2022/04/10 01:44:02;;;;;;;2.33;1.83;;;;;;;;;;5021206;28;20041;-69
2022/04/10 01:46:29;;;;;;;4.05;2.40;;;;;;;;;;5021535;28;20036;-69
2022/04/10 01:48:55;;;;;;;2.47;1.95;;;;;;;;;;5021254;28;20227;-71
2022/04/10 01:51:22;;;;;;;1.40;1.30;;;;;;;;;;5021149;28;20040;-71
2022/04/10 01:53:48;;;;;;;1.65;1.55;;;;;;;;;;5022173;28;20037;-71
2022/04/10 01:56:13;;;;;;;5.20;1.83;;;;;;;;;;5022626;28;20041;-71
2022/04/10 01:58:44;;;;;;;1.75;1.63;;;;;;;;;;5020525;28;20037;-69
2022/04/10 02:01:13;;;;;;;2.67;2.00;;;;;;;;;;5018672;28;20042;-71
2022/04/10 02:03:39;;;;;;;3.88;2.42;;;;;;;;;;5020308;28;20378;-71
2022/04/10 02:06:09;;;;;;;5.78;2.25;;;;;;;;;;5020279;28;20029;-71
2022/04/10 02:08:38;;;;;;;3.20;1.98;;;;;;;;;;5027464;28;20033;-68
2022/04/10 02:11:10;;;;;;;2.30;1.42;;;;;;;;;;5011801;28;20037;-69
2022/04/10 02:13:37;;;;;;;1.20;1.08;;;;;;;;;;5028805;28;20049;-69
2022/04/10 02:16:03;;;;;;;2.88;1.67;;;;;;;;;;5020484;28;20059;-70
2022/04/10 02:18:28;;;;;;;2.97;2.08;;;;;;;;;;5020526;28;20060;-71
2022/04/10 02:20:54;;;;;;;1.95;1.67;;;;;;;;;;5021374;28;20116;-71
2022/04/10 02:23:19;;;;;;;10.38;2.88;;;;;;;;;;5001990;28;20040;-71
2022/04/10 02:25:45;;;;;;;4.47;2.45;;;;;;;;;;5021713;28;20045;-71
2022/04/10 02:28:10;;;;;;;6.75;2.75;;;;;;;;;;5021453;28;20029;-71
2022/04/10 02:30:38;;;;;;;6.22;2.50;;;;;;;;;;5021327;28;20052;-70
2022/04/10 02:33:04;;;;;;;3.85;2.28;;;;;;;;;;5022744;28;20048;-70
2022/04/10 02:35:30;;;;;;;2.47;1.98;;;;;;;;;;5019177;28;20487;-69
2022/04/10 02:37:56;;;;;;;1.92;1.33;;;;;;;;;;5019739;28;20068;-70
2022/04/10 02:40:22;;;;;;;6.60;2.35;;;;;;;;;;5021251;28;20087;-70
2022/04/10 02:42:49;;;;;;;5.32;2.67;;;;;;;;;;5019678;28;20095;-69
2022/04/10 02:45:15;;;;;;;4.57;2.55;;;;;;;;;;5019157;28;20029;-70
2022/04/10 02:47:42;;;;;;;3.75;2.17;;;;;;;;;;5018554;28;20915;-69
2022/04/10 02:50:08;;;;;;;3.15;2.55;;;;;;;;;;5020250;28;20486;-69
2022/04/10 02:52:35;;;;;;;4.13;2.13;;;;;;;;;;5019641;28;20068;-68
2022/04/10 02:55:01;;;;;;;3.00;2.50;;;;;;;;;;5019839;28;20129;-69
2022/04/10 02:57:26;;;;;;;1.88;1.63;;;;;;;;;;5017940;28;20094;-69
2022/04/10 02:59:52;;;;;;;2.70;1.60;;;;;;;;;;5019509;28;20485;-69
2022/04/10 03:02:17;;;;;;;2.20;1.92;;;;;;;;;;5019924;28;20033;-69
2022/04/10 03:04:43;;;;;;;1.95;1.42;;;;;;;;;;5021721;28;20037;-69
2022/04/10 03:07:08;;;;;;;6.07;2.60;;;;;;;;;;5018736;28;20052;-69
2022/04/10 03:09:34;;;;;;;4.43;2.17;;;;;;;;;;5019141;28;20034;-68
2022/04/10 03:11:59;;;;;;;3.30;1.95;;;;;;;;;;5019128;28;20502;-68
2022/04/10 03:14:25;;;;;;;2.03;1.83;;;;;;;;;;5019452;28;20029;-67
2022/04/10 03:16:51;;;;;;;2.05;1.83;;;;;;;;;;5016604;28;20148;-71
2022/04/10 03:19:17;;;;;;;2.80;2.20;;;;;;;;;;5017125;28;20521;-70
2022/04/10 03:21:43;;;;;;;2.25;1.65;;;;;;;;;;5019164;28;20049;-71
2022/04/10 03:24:08;;;;;;;5.30;2.35;;;;;;;;;;5021041;28;20021;-70
2022/04/10 03:26:34;;;;;;;3.47;1.98;;;;;;;;;;5019671;28;20525;-70
2022/04/10 03:29:00;;;;;;;2.33;2.13;;;;;;;;;;5018079;28;20029;-69
2022/04/10 03:31:26;;;;;;;1.73;1.42;;;;;;;;;;5018715;28;20033;-71
2022/04/10 03:33:53;;;;;;;3.35;2.38;;;;;;;;;;5018774;28;20976;-70
2022/04/10 03:36:18;;;;;;;3.47;2.50;;;;;;;;;;5020473;28;20025;-71
2022/04/10 03:38:44;;;;;;;5.63;1.70;;;;;;;;;;5019007;28;20995;-71
2022/04/10 03:41:10;;;;;;;7.00;2.55;;;;;;;;;;5017642;28;21113;-70
2022/04/10 03:43:36;;;;;;;10.57;2.28;;;;;;;;;;5019032;28;20084;-70
2022/04/10 03:46:02;;;;;;;4.78;1.88;;;;;;;;;;5018972;28;20092;-69
2022/04/10 03:48:29;;;;;;;3.05;1.95;;;;;;;;;;5018790;28;20029;-70
2022/04/10 03:50:55;;;;;;;3.03;2.40;;;;;;;;;;5017389;28;20189;-71
2022/04/10 03:53:21;;;;;;;3.28;1.70;;;;;;;;;;5018500;28;20026;-72
2022/04/10 03:55:48;;;;;;;2.58;1.80;;;;;;;;;;5018821;28;20037;-70
2022/04/10 03:58:14;;;;;;;4.47;2.35;;;;;;;;;;5019092;28;20132;-70
2022/04/10 04:00:40;;;;;;;4.60;2.60;;;;;;;;;;5021793;28;20120;-70
2022/04/10 04:03:11;;;;;;;2.92;2.22;;;;;;;;;;5022433;28;20451;-70
2022/04/10 04:05:38;;;;;;;5.68;2.75;;;;;;;;;;5022753;28;20030;-71
2022/04/10 04:08:07;;;;;;;3.50;2.13;;;;;;;;;;5021972;28;20037;-70
2022/04/10 04:10:34;;;;;;;6.82;3.45;;;;;;;;;;5022605;28;20140;-69
2022/04/10 04:13:01;;;;;;;5.25;3.60;;;;;;;;;;5019966;28;20856;-69
2022/04/10 04:15:27;;;;;;;5.45;3.70;;;;;;;;;;5022210;28;20421;-70
2022/04/10 04:17:54;;;;;;;8.38;3.63;;;;;;;;;;5023313;28;20120;-70
2022/04/10 04:20:20;;;;;;;4.65;3.58;;;;;;;;;;5022258;28;20141;-71
2022/04/10 04:22:45;;;;;;;5.07;3.40;;;;;;;;;;5021242;28;20576;-70
2022/04/10 04:25:12;;;;;;;7.28;3.40;;;;;;;;;;5020657;28;20029;-70
2022/04/10 04:27:39;;;;;;;4.50;3.50;;;;;;;;;;5021558;28;20509;-69
2022/04/10 04:30:05;;;;;;;5.57;3.70;;;;;;;;;;5021967;28;20061;-71
2022/04/10 04:32:32;;;;;;;4.07;3.17;;;;;;;;;;5021121;28;20033;-70
2022/04/10 04:34:57;;;;;;;7.80;3.28;;;;;;;;;;5020687;28;20498;-70
2022/04/10 04:37:23;;;;;;;6.18;3.03;;;;;;;;;;5021631;28;20498;-70
2022/04/10 04:39:49;;;;;;;6.45;3.80;;;;;;;;;;5022016;28;20045;-69
2022/04/10 04:42:16;;;;;;;6.50;3.60;;;;;;;;;;5004927;28;20037;-70
2022/04/10 04:44:42;;;;;;;4.25;3.47;;;;;;;;;;5021676;28;20112;-70
2022/04/10 04:47:07;;;;;;;6.82;3.58;;;;;;;;;;5019811;28;20540;-71
2022/04/10 04:49:33;;;;;;;3.75;3.30;;;;;;;;;;5021465;28;20109;-71
2022/04/10 04:52:00;;;;;;;6.63;3.65;;;;;;;;;;5021200;28;20034;-71
2022/04/10 04:54:25;;;;;;;3.85;3.30;;;;;;;;;;5021024;28;20040;-68
2022/04/10 04:56:51;;;;;;;5.93;3.95;;;;;;;;;;5019241;28;20048;-68
2022/04/10 04:59:17;;;;;;;5.85;3.40;;;;;;;;;;5021320;28;20063;-68
2022/04/10 05:01:44;;;;;;;8.38;3.35;;;;;;;;;;5020821;28;20040;-71
2022/04/10 05:04:12;;;;;;;6.10;3.80;;;;;;;;;;5021336;28;20113;-69
2022/04/10 05:06:38;;;;;;;7.88;3.78;;;;;;;;;;5021555;28;20033;-69
2022/04/10 05:09:05;;;;;;;9.93;4.05;;;;;;;;;;5019928;28;20029;-68
2022/04/10 05:11:32;;;;;;;9.10;3.42;;;;;;;;;;5020663;28;20060;-68
2022/04/10 05:13:58;;;;;;;5.05;3.30;;;;;;;;;;5020200;28;20487;-68
2022/04/10 05:16:24;;;;;;;6.60;3.97;;;;;;;;;;5021368;28;20036;-69
2022/04/10 05:18:50;;;;;;;5.15;3.08;;;;;;;;;;5020039;28;20044;-68
2022/04/10 05:21:19;;;;;;;5.72;3.33;;;;;;;;;;5020928;28;20033;-71
2022/04/10 05:23:46;;;;;;;8.15;3.60;;;;;;;;;;5020616;28;20033;-70
2022/04/10 05:26:16;;;;;;;4.18;3.33;;;;;;;;;;5020729;28;20041;-69
2022/04/10 05:28:45;;;;;;;5.80;3.50;;;;;;;;;;5020892;28;20501;-70
2022/04/10 05:31:10;;;;;;;4.05;2.92;;;;;;;;;;5019044;28;20029;-71
2022/04/10 05:33:39;;;;;;;6.82;3.22;;;;;;;;;;5020423;28;20537;-69
2022/04/10 05:36:05;;;;;;;4.38;2.85;;;;;;;;;;5020958;28;20037;-69
2022/04/10 05:38:33;;;;;;;2.80;2.35;;;;;;;;;;5021106;28;20127;-68
2022/04/10 05:40:59;;;;;;;7.78;3.10;;;;;;;;;;5019053;28;20490;-69
2022/04/10 05:43:29;;;;;;;4.90;3.22;;;;;;;;;;5020259;28;20029;-68
2022/04/10 05:45:55;;;;;;;4.97;2.80;;;;;;;;;;5020366;28;20037;-71
2022/04/10 05:48:22;;;;;;;3.33;2.88;;;;;;;;;;5021329;28;20017;-68
2022/04/10 05:50:47;;;;;;;4.03;2.72;;;;;;;;;;5021819;28;20798;-69
2022/04/10 05:53:13;;;;;;;4.32;2.83;;;;;;;;;;5019327;28;20071;-69
2022/04/10 05:55:40;;;;;;;7.55;3.08;;;;;;;;;;5004158;28;20064;-70
2022/04/10 05:58:10;;;;;;;3.55;2.50;;;;;;;;;;5022091;28;20033;-69
2022/04/10 06:00:38;;;;;;;3.95;2.90;;;;;;;;;;5017424;28;20037;-71
2022/04/10 06:03:12;;;;;;;3.38;2.95;;;;;;;;;;5011600;28;20050;-69
2022/04/10 06:05:41;;;;;;;5.28;3.50;;;;;;;;;;5015480;28;20029;-69
2022/04/10 06:08:14;;;;;;;7.30;3.20;;;;;;;;;;5027225;28;20068;-69
2022/04/10 06:10:40;;;;;;;5.22;3.67;;;;;;;;;;5019285;28;20148;-69
2022/04/10 06:13:09;;;;;;;3.47;3.00;;;;;;;;;;5013440;28;20112;-69
2022/04/10 06:15:39;;;;;;;4.07;2.53;;;;;;;;;;5017936;28;20068;-69
2022/04/10 06:18:05;;;;;;;6.57;2.97;;;;;;;;;;5020221;28;20108;-69
2022/04/10 06:20:31;;;;;;;7.70;2.35;;;;;;;;;;5017921;28;20033;-69
2022/04/10 06:22:57;;;;;;;11.73;4.78;;;;;;;;;;5016337;28;20035;-68
2022/04/10 06:25:23;;;;;;;6.20;3.22;;;;;;;;;;5015918;28;20017;-69
2022/04/10 06:27:48;;;;;;;6.13;3.22;;;;;;;;;;5018756;28;20040;-69
2022/04/10 06:30:14;;;;;;;6.53;3.45;;;;;;;;;;5016747;28;20506;-70
2022/04/10 06:32:48;;;;;;;8.60;3.35;;;;;;;;;;5018309;28;20033;-70
2022/04/10 06:35:14;;;;;;;8.45;3.90;;;;;;;;;;5017348;28;20021;-69
2022/04/10 06:37:40;;;;;;;6.97;3.97;;;;;;;;;;5018094;28;20080;-69
2022/04/10 06:40:06;;;;;;;6.97;3.53;;;;;;;;;;5018564;28;20121;-69
2022/04/10 06:42:32;;;;;;;9.35;3.20;;;;;;;;;;5017945;28;20033;-69
2022/04/10 06:45:16;;;;;;;4.80;3.53;;;;;;;;;;5018325;28;20048;-70
2022/04/10 06:47:54;;;;;;;8.75;2.42;;;;;;;;;;5018245;28;20049;-69
2022/04/10 06:50:21;;;;;;;7.57;3.03;;;;;;;;;;5017725;28;20029;-69
2022/04/10 06:52:47;;;;;;;4.38;2.95;;;;;;;;;;5001539;28;20409;-69
2022/04/10 06:55:12;;;;;;;4.00;2.80;;;;;;;;;;5016687;28;20033;-70
2022/04/10 06:57:38;;;;;;;6.10;4.45;;;;;;;;;;5015811;28;20044;-69
2022/04/10 07:00:05;;;;;;;5.10;2.95;;;;;;;;;;5015406;28;20509;-70
2022/04/10 07:02:34;;;;;;;6.32;4.13;;;;;;;;;;5015284;28;20173;-70
2022/04/10 07:04:59;;;;;;;2.55;2.35;;;;;;;;;;5016426;28;20117;-70
2022/04/10 07:07:27;;;;;;;3.67;3.03;;;;;;;;;;5016180;28;20652;-70
2022/04/10 07:09:53;;;;;;;6.88;5.03;;;;;;;;;;5013312;28;20148;-70
2022/04/10 07:12:19;;;;;;;8.05;4.90;;;;;;;;;;4995449;28;20039;-71
2022/04/10 07:14:48;;;;;;;11.18;5.45;;;;;;;;;;5016798;28;20038;-71
2022/04/10 07:17:14;;;;;;;9.52;5.95;;;;;;;;;;5016962;28;20053;-72
2022/04/10 07:19:40;;;;;;;8.95;5.40;;;;;;;;;;5016061;28;20616;-72
2022/04/10 07:24:50;;;;;;;4.78;4.22;;;;;;;;;;5017906;28;20129;-73
2022/04/10 07:27:16;;;;;;;7.60;3.78;;;;;;;;;;5016439;28;20132;-73
2022/04/10 07:29:52;;;;;;;4.03;3.30;;;;;;;;;;5017677;28;20072;-72
2022/04/10 07:32:21;;;;;;;4.18;3.00;;;;;;;;;;5016350;28;20033;-72
2022/04/10 07:34:54;;;;;;;4.57;2.78;;;;;;;;;;5006020;28;20799;-72
2022/04/10 07:37:43;;;;;;;7.68;5.25;;;;;;;;;;5018034;28;20045;-72
2022/04/10 07:40:09;;;;;;;7.10;4.60;;;;;;;;;;5022838;28;20863;-71
2022/04/10 07:42:44;;;;;;;7.20;4.40;;;;;;;;;;5019945;28;20049;-72
2022/04/10 07:48:09;;;;;;;4.05;3.42;;;;;;;;;;5017425;28;20095;-71
2022/04/10 07:50:36;;;;;;;3.25;2.95;;;;;;;;;;5016795;28;20029;-70
2022/04/10 07:53:02;;;;;;;5.18;2.80;;;;;;;;;;5019769;28;20040;-70
2022/04/10 07:55:30;;;;;;;6.07;3.70;;;;;;;;;;5021629;28;20029;-71
2022/04/10 07:57:59;;;;;;;3.67;2.88;;;;;;;;;;5021778;28;20037;-70
2022/04/10 08:00:26;;;;;;;7.68;4.60;;;;;;;;;;5014930;28;20060;-69
2022/04/10 08:02:59;;;;;;;3.33;3.00;;;;;;;;;;5006246;28;20025;-70
2022/04/10 08:05:43;;;;;;;7.43;3.35;;;;;;;;;;5021956;28;20048;-70
2022/04/10 08:08:16;;;;;;;3.22;2.92;;;;;;;;;;5022056;28;20516;-71
2022/04/10 08:10:41;;;;;;;5.63;3.42;;;;;;;;;;5022623;28;20077;-71
2022/04/10 08:13:07;;;;;;;6.82;3.67;;;;;;;;;;5022479;28;20116;-71
2022/04/10 08:15:33;;;;;;;5.75;3.45;;;;;;;;;;5020684;28;20506;-70
2022/04/10 08:17:58;;;;;;;7.28;3.42;;;;;;;;;;5020870;28;20727;-70
2022/04/10 08:20:24;;;;;;;5.10;3.53;;;;;;;;;;5023216;28;20374;-70
2022/04/10 08:22:53;;;;;;;4.47;3.22;;;;;;;;;;5022318;28;20091;-70
2022/04/10 08:25:18;;;;;;;6.28;3.75;;;;;;;;;;5021276;28;20398;-69
2022/04/10 08:27:44;;;;;;;4.75;3.47;;;;;;;;;;5022165;28;20045;-69
2022/04/10 08:30:10;;;;;;;3.63;3.00;;;;;;;;;;5022915;28;20132;-70
2022/04/10 08:32:42;;;;;;;4.35;3.25;;;;;;;;;;5021121;28;20065;-70
2022/04/10 08:35:09;;;;;;;5.85;3.63;;;;;;;;;;5020099;28;20117;-69
2022/04/10 08:37:35;;;;;;;4.00;3.17;;;;;;;;;;5014580;28;20163;-71
2022/04/10 08:40:00;;;;;;;2.72;2.35;;;;;;;;;;5021299;28;20041;-70
2022/04/10 08:42:26;;;;;;;4.28;2.33;;;;;;;;;;5022831;28;20091;-70
2022/04/10 08:44:54;;;;;;;10.98;2.80;;;;;;;;;;5020830;28;20035;-70
2022/04/10 08:47:21;;;;;;;4.03;2.95;;;;;;;;;;5017355;28;20033;-70
2022/04/10 08:49:48;;;;;;;2.47;2.10;;;;;;;;;;5021330;28;20069;-71
2022/04/10 08:52:19;;;;;;;2.33;2.13;;;;;;;;;;5022551;28;20075;-70
2022/04/10 08:54:46;;;;;;;5.50;2.85;;;;;;;;;;5020861;28;20120;-70
2022/04/10 08:57:12;;;;;;;8.63;2.55;;;;;;;;;;5015673;28;20837;-70
2022/04/10 08:59:38;;;;;;;5.05;2.72;;;;;;;;;;5016621;28;20037;-69
2022/04/10 09:02:04;;;;;;;2.38;2.17;;;;;;;;;;5020152;28;20034;-69
2022/04/10 09:04:31;;;;;;;4.15;2.45;;;;;;;;;;5018334;28;20239;-70
2022/04/10 09:07:02;;;;;;;4.15;2.42;;;;;;;;;;5018325;28;20055;-69
2022/04/10 09:09:29;;;;;;;2.47;2.20;;;;;;;;;;5017794;28;20035;-69
2022/04/10 09:11:56;;;;;;;5.15;2.10;;;;;;;;;;5020979;28;20052;-68
2022/04/10 09:14:23;;;;;;;2.75;1.85;;;;;;;;;;5019170;28;20033;-69
2022/04/10 09:17:11;;;;;;;3.28;2.50;;;;;;;;;;5020743;28;20121;-69
2022/04/10 09:19:38;;;;;;;3.95;1.92;;;;;;;;;;5020768;28;20116;-68
2022/04/10 09:22:40;;;;;;;2.95;2.58;;;;;;;;;;5019855;28;20519;-68
2022/04/10 09:25:14;;;;;;;4.43;3.33;;;;;;;;;;5020739;28;20140;-68
2022/04/10 09:27:41;;;;;;;6.22;3.63;;;;;;;;;;5020530;28;20589;-68
2022/04/10 09:30:10;;;;;;;6.78;4.18;;;;;;;;;;5018196;28;20449;-68
2022/04/10 09:32:44;;;;;;;4.72;4.03;;;;;;;;;;5018559;28;20037;-69
2022/04/10 09:35:12;;;;;;;6.32;3.25;;;;;;;;;;5019042;28;20033;-70
2022/04/10 09:37:54;;;;;;;6.60;3.25;;;;;;;;;;5020725;28;20061;-70
2022/04/10 09:40:35;;;;;;;5.22;3.50;;;;;;;;;;5020306;28;20052;-70
2022/04/10 09:43:07;;;;;;;6.82;3.40;;;;;;;;;;5018467;28;20050;-70
2022/04/10 09:45:36;;;;;;;3.05;2.75;;;;;;;;;;5019713;28;20029;-70
2022/04/10 09:48:21;;;;;;;3.78;2.95;;;;;;;;;;5018134;28;20037;-70
2022/04/10 09:50:56;;;;;;;3.10;2.78;;;;;;;;;;5018920;28;20029;-70
2022/04/10 09:53:22;;;;;;;4.18;2.65;;;;;;;;;;5016062;28;20029;-70
2022/04/10 09:56:05;;;;;;;4.13;2.60;;;;;;;;;;5017275;28;20083;-70
2022/04/10 09:58:32;;;;;;;3.50;2.63;;;;;;;;;;5011774;28;20112;-70
2022/04/10 10:00:59;;;;;;;12.27;2.63;;;;;;;;;;5016397;28;20068;-68
2022/04/10 10:03:26;;;;;;;4.15;2.75;;;;;;;;;;5017581;28;20041;-69
2022/04/10 10:05:53;;;;;;;4.38;2.47;;;;;;;;;;5018463;28;20048;-68
2022/04/10 10:08:19;;;;;;;4.78;2.47;;;;;;;;;;5020597;28;20086;-68
2022/04/10 10:10:45;;;;;;;4.75;2.85;;;;;;;;;;5021274;28;20041;-70
2022/04/10 10:13:14;;;;;;;4.43;2.88;;;;;;;;;;5020831;28;20036;-69
2022/04/10 10:15:41;;;;;;;3.80;2.67;;;;;;;;;;5018965;28;20041;-68
2022/04/10 10:18:09;;;;;;;2.85;2.35;;;;;;;;;;5020747;28;20098;-69
2022/04/10 10:20:36;;;;;;;6.15;2.45;;;;;;;;;;5021605;28;20033;-68
2022/04/10 10:23:08;;;;;;;6.05;2.78;;;;;;;;;;5010461;28;20037;-68
2022/04/10 10:25:46;;;;;;;4.30;2.42;;;;;;;;;;5018775;28;20037;-69
2022/04/10 10:28:32;;;;;;;4.38;1.95;;;;;;;;;;5012920;28;20059;-69
2022/04/10 10:31:33;;;;;;;5.13;1.80;;;;;;;;;;5017468;28;20052;-68
2022/04/10 10:34:04;;;;;;;8.25;1.80;;;;;;;;;;4996939;28;20099;-69
2022/04/10 10:36:31;;;;;;;2.17;1.50;;;;;;;;;;5018455;28;20033;-68
2022/04/10 10:38:58;;;;;;;6.80;2.20;;;;;;;;;;5016482;28;20132;-68
2022/04/10 10:41:24;;;;;;;2.90;1.60;;;;;;;;;;5017909;28;20052;-68
2022/04/10 10:43:50;;;;;;;3.35;2.25;;;;;;;;;;5017640;28;20037;-68
2022/04/10 10:46:18;;;;;;;1.85;1.60;;;;;;;;;;5019334;28;20187;-68
2022/04/10 10:48:44;;;;;;;2.60;1.65;;;;;;;;;;5016986;28;20033;-68
2022/04/10 10:51:09;;;;;;;2.78;2.20;;;;;;;;;;5018754;28;20832;-67
2022/04/10 10:53:55;;;;;;;5.47;2.20;;;;;;;;;;5015488;28;20636;-67
2022/04/10 10:56:27;;;;;;;3.75;1.92;;;;;;;;;;5018614;28;20044;-68
2022/04/10 10:58:55;;;;;;;6.95;1.98;;;;;;;;;;5018183;28;20044;-69
2022/04/10 11:01:28;;;;;;;6.00;2.40;;;;;;;;;;5016907;28;20079;-68
2022/04/10 11:04:03;;;;;;;2.60;2.33;;;;;;;;;;5016354;28;20044;-68
2022/04/10 11:06:30;;;;;;;3.95;2.30;;;;;;;;;;5019580;28;20033;-68
2022/04/10 11:09:36;;;;;;;4.28;2.72;;;;;;;;;;5018175;28;20072;-68
2022/04/10 11:12:01;;;;;;;3.00;2.60;;;;;;;;;;5015414;28;20061;-67
2022/04/10 11:14:41;;;;;;;5.35;3.17;;;;;;;;;;5017427;28;20034;-68
2022/04/10 11:17:07;;;;;;;2.35;2.15;;;;;;;;;;5017649;28;20454;-68
2022/04/10 11:19:32;;;;;;;2.00;1.80;;;;;;;;;;5018346;28;20038;-69
2022/04/10 11:21:58;;;;;;;5.53;2.65;;;;;;;;;;5016809;28;20095;-68
2022/04/10 11:24:23;;;;;;;5.20;2.50;;;;;;;;;;5016941;28;20112;-68
2022/04/10 11:26:49;;;;;;;3.45;2.75;;;;;;;;;;5014206;28;20042;-68
2022/04/10 11:29:19;;;;;;;5.07;2.67;;;;;;;;;;5017409;28;20118;-68
2022/04/10 11:31:52;;;;;;;6.03;3.08;;;;;;;;;;5018456;28;20160;-69
2022/04/10 11:34:22;;;;;;;5.15;2.38;;;;;;;;;;5015010;28;20478;-68
2022/04/10 11:36:48;;;;;;;3.80;2.35;;;;;;;;;;5017338;28;20090;-69
2022/04/10 11:39:16;;;;;;;2.25;1.90;;;;;;;;;;5017834;28;20050;-69
2022/04/10 11:41:42;;;;;;;2.45;1.65;;;;;;;;;;5017904;28;20136;-68
2022/04/10 11:44:09;;;;;;;2.85;1.75;;;;;;;;;;5015254;28;20083;-68
2022/04/10 11:46:35;;;;;;;2.65;2.35;;;;;;;;;;5018327;28;20048;-68
2022/04/10 11:49:03;;;;;;;3.00;2.20;;;;;;;;;;5017479;28;20387;-68
2022/04/10 11:51:29;;;;;;;2.95;2.30;;;;;;;;;;5018570;28;20060;-68
2022/04/10 11:54:03;;;;;;;4.40;1.98;;;;;;;;;;5016683;28;20033;-68
2022/04/10 11:56:29;;;;;;;2.97;1.90;;;;;;;;;;5016921;28;20072;-68
2022/04/10 11:58:54;;;;;;;5.07;2.30;;;;;;;;;;5013077;28;20120;-69
2022/04/10 12:01:20;;;;;;;3.30;1.70;;;;;;;;;;5017713;28;20038;-69
2022/04/10 12:03:51;;;;;;;2.42;2.10;;;;;;;;;;5017665;28;20045;-69
2022/04/10 12:06:20;;;;;;;2.45;2.08;;;;;;;;;;5017289;28;20048;-68
2022/04/10 12:08:47;;;;;;;2.83;1.75;;;;;;;;;;5018465;28;20080;-69
2022/04/10 12:11:13;;;;;;;4.60;1.92;;;;;;;;;;5017500;28;20136;-68
2022/04/10 12:13:38;;;;;;;4.97;3.15;;;;;;;;;;5018037;28;20139;-68
2022/04/10 12:16:17;;;;;;;4.70;2.20;;;;;;;;;;5018976;28;20139;-68
2022/04/10 12:18:51;;;;;;;2.85;2.30;;;;;;;;;;5019116;28;20034;-68
2022/04/10 12:21:17;;;;;;;5.82;2.47;;;;;;;;;;5022238;28;20033;-68
2022/04/10 12:23:43;;;;;;;3.85;2.28;;;;;;;;;;5022122;28;20122;-68
2022/04/10 12:26:09;;;;;;;5.63;2.10;;;;;;;;;;5023679;28;20029;-67
2022/04/10 12:28:37;;;;;;;6.47;2.83;;;;;;;;;;5022091;28;20067;-67
2022/04/10 12:31:03;;;;;;;3.53;2.30;;;;;;;;;;5021838;28;20664;-67
2022/04/10 12:33:30;;;;;;;3.47;2.72;;;;;;;;;;5022329;28;20037;-68
2022/04/10 12:35:55;;;;;;;3.03;2.70;;;;;;;;;;5022633;28;20507;-68
2022/04/10 12:38:27;;;;;;;3.97;2.03;;;;;;;;;;5022189;28;20490;-68
2022/04/10 12:41:05;;;;;;;6.25;2.78;;;;;;;;;;5022135;28;20133;-68
2022/04/10 12:43:31;;;;;;;4.93;2.58;;;;;;;;;;5022187;28;20037;-68
2022/04/10 12:46:13;;;;;;;2.63;1.50;;;;;;;;;;5022046;28;20090;-68
2022/04/10 12:48:39;;;;;;;2.80;2.10;;;;;;;;;;5023460;28;20033;-70
2022/04/10 12:51:09;;;;;;;2.88;1.77;;;;;;;;;;5020293;28;20025;-68
2022/04/10 12:53:36;;;;;;;4.50;2.25;;;;;;;;;;5019221;28;20482;-68
2022/04/10 12:56:01;;;;;;;1.45;1.35;;;;;;;;;;5022151;28;20089;-68
2022/04/10 12:58:30;;;;;;;2.40;1.60;;;;;;;;;;5021439;28;20037;-69
2022/04/10 13:00:56;;;;;;;3.83;2.00;;;;;;;;;;5020316;28;20041;-68
2022/04/10 13:03:29;;;;;;;4.95;2.35;;;;;;;;;;5021873;28;20029;-69
2022/04/10 13:06:01;;;;;;;3.13;2.08;;;;;;;;;;5022120;28;20068;-70
2022/04/10 13:08:28;;;;;;;2.63;1.60;;;;;;;;;;5022559;28;20231;-69
2022/04/10 13:10:57;;;;;;;2.03;1.85;;;;;;;;;;5012946;28;20033;-69
2022/04/10 13:13:23;;;;;;;1.95;1.75;;;;;;;;;;5017271;28;20048;-69
2022/04/10 13:15:48;;;;;;;5.22;2.08;;;;;;;;;;5018441;28;20038;-69
2022/04/10 13:18:14;;;;;;;2.22;1.70;;;;;;;;;;5019217;28;20051;-70
2022/04/10 13:20:40;;;;;;;4.00;1.92;;;;;;;;;;5019648;28;20111;-69
2022/04/10 13:23:06;;;;;;;1.60;1.50;;;;;;;;;;5017684;28;20129;-70
2022/04/10 13:25:33;;;;;;;2.88;1.52;;;;;;;;;;5013357;28;20179;-70
2022/04/10 13:28:03;;;;;;;2.20;1.67;;;;;;;;;;5018767;28;20037;-70
2022/04/10 13:30:29;;;;;;;2.47;2.17;;;;;;;;;;5019220;28;20648;-69
2022/04/10 13:32:55;;;;;;;2.63;1.30;;;;;;;;;;5019453;28;20084;-72
2022/04/10 13:35:21;;;;;;;2.00;1.80;;;;;;;;;;5016923;28;20033;-70
2022/04/10 13:37:47;;;;;;;3.53;1.98;;;;;;;;;;5020396;28;20033;-69
2022/04/10 13:40:13;;;;;;;2.15;1.95;;;;;;;;;;5019019;28;20091;-69
2022/04/10 13:42:39;;;;;;;5.28;2.20;;;;;;;;;;5020148;28;20037;-69
2022/04/10 13:45:05;;;;;;;2.08;1.50;;;;;;;;;;5017249;28;20383;-69
2022/04/10 13:47:30;;;;;;;1.85;1.48;;;;;;;;;;5019864;28;20033;-68
2022/04/10 13:49:56;;;;;;;2.83;2.35;;;;;;;;;;5018860;28;20044;-72
2022/04/10 13:52:21;;;;;;;4.57;2.20;;;;;;;;;;5019512;28;20049;-69
2022/04/10 13:54:47;;;;;;;5.75;2.50;;;;;;;;;;5015857;28;20040;-68
2022/04/10 13:57:13;;;;;;;1.73;1.63;;;;;;;;;;5020174;28;20542;-68
2022/04/10 13:59:38;;;;;;;3.08;2.30;;;;;;;;;;5019709;28;21048;-68
2022/04/10 14:02:05;;;;;;;1.73;1.50;;;;;;;;;;5016208;28;20534;-68
2022/04/10 14:04:30;;;;;;;3.47;1.92;;;;;;;;;;5018640;28;20411;-68
2022/04/10 14:06:56;;;;;;;5.40;2.05;;;;;;;;;;5015407;28;20867;-68
2022/04/10 14:09:23;;;;;;;3.95;2.20;;;;;;;;;;5020967;28;20123;-69
2022/04/10 14:11:49;;;;;;;1.80;1.65;;;;;;;;;;5020925;28;20124;-69
2022/04/10 14:14:15;;;;;;;2.25;2.10;;;;;;;;;;5020222;28;20037;-70
2022/04/10 14:16:41;;;;;;;3.75;2.47;;;;;;;;;;5018769;28;20091;-71
2022/04/10 14:19:06;;;;;;;2.92;2.20;;;;;;;;;;5021552;28;20033;-69
2022/04/10 14:21:32;;;;;;;2.58;2.08;;;;;;;;;;5020383;28;20111;-70
2022/04/10 14:23:59;;;;;;;3.95;2.60;;;;;;;;;;5020207;28;20139;-69
2022/04/10 14:26:25;;;;;;;3.80;2.38;;;;;;;;;;5021177;28;20075;-68
2022/04/10 14:28:50;;;;;;;13.90;2.90;;;;;;;;;;5019792;28;20033;-68
2022/04/10 14:31:16;;;;;;;3.10;2.30;;;;;;;;;;5020556;28;20474;-68
2022/04/10 14:33:42;;;;;;;2.40;2.20;;;;;;;;;;5020061;28;20041;-69
2022/04/10 14:36:07;;;;;;;2.75;1.58;;;;;;;;;;5020199;28;20037;-68
2022/04/10 14:38:33;;;;;;;3.33;2.15;;;;;;;;;;5017592;28;20048;-68
2022/04/10 14:40:58;;;;;;;4.32;2.00;;;;;;;;;;5020335;28;20043;-68
2022/04/10 14:43:24;;;;;;;2.80;1.95;;;;;;;;;;5020995;28;20045;-69
2022/04/10 14:45:50;;;;;;;2.22;1.63;;;;;;;;;;5020429;28;20121;-68
2022/04/10 14:48:15;;;;;;;1.50;1.10;;;;;;;;;;5020585;28;20151;-70
2022/04/10 14:50:41;;;;;;;2.15;1.95;;;;;;;;;;5019127;28;20401;-68
2022/04/10 14:53:07;;;;;;;1.38;1.27;;;;;;;;;;5020554;28;20482;-67